sensor_id;sensor_type;location;lat;lon;timestamp;pressure;altitude;pressure_sealevel;temperature;humidity
67052;BME280;53957;47.222;18.670;2023-04-28T00:00:24;100727.12;;;1.92;100.00
67052;BME280;53957;47.222;18.670;2023-04-28T00:03:27;100725.72;;;1.89;100.00
67052;BME280;53957;47.222;18.670;2023-04-28T00:06:30;100720.78;;;2.00;100.00
67052;BME280;53957;47.222;18.670;2023-04-28T00:09:33;100725.22;;;2.06;100.00
67052;BME280;53957;47.222;18.670;2023-04-28T00:12:36;100714.31;;;2.02;100.00
67052;BME280;53957;47.222;18.670;2023-04-28T00:15:39;100717.16;;;2.01;100.00
67052;BME280;53957;47.222;18.670;2023-04-28T00:18:42;100705.00;;;1.74;100.00
67052;BME280;53957;47.222;18.670;2023-04-28T00:21:45;100713.28;;;1.71;100.00
67052;BME280;53957;47.222;18.670;2023-04-28T00:24:48;100709.13;;;1.57;100.00
67052;BME280;53957;47.222;18.670;2023-04-28T00:27:51;100700.22;;;1.58;100.00
67052;BME280;53957;47.222;18.670;2023-04-28T00:30:54;100698.53;;;1.32;100.00
67052;BME280;53957;47.222;18.670;2023-04-28T00:33:57;100707.13;;;1.52;100.00
67052;BME280;53957;47.222;18.670;2023-04-28T00:36:59;100710.56;;;1.53;100.00
67052;BME280;53957;47.222;18.670;2023-04-28T00:40:03;100711.16;;;1.48;100.00
67052;BME280;53957;47.222;18.670;2023-04-28T00:43:06;100722.69;;;1.54;100.00
67052;BME280;53957;47.222;18.670;2023-04-28T00:46:10;100718.72;;;1.76;100.00
67052;BME280;53957;47.222;18.670;2023-04-28T00:49:16;100721.16;;;1.78;100.00
67052;BME280;53957;47.222;18.670;2023-04-28T00:52:20;100721.09;;;1.46;100.00
67052;BME280;53957;47.222;18.670;2023-04-28T00:55:23;100722.06;;;1.52;100.00
67052;BME280;53957;47.222;18.670;2023-04-28T00:58:29;100723.56;;;1.80;100.00
67052;BME280;53957;47.222;18.670;2023-04-28T01:01:31;100725.72;;;1.89;100.00
67052;BME280;53957;47.222;18.670;2023-04-28T01:04:37;100724.56;;;1.85;100.00
67052;BME280;53957;47.222;18.670;2023-04-28T01:07:40;100720.78;;;1.68;100.00
67052;BME280;53957;47.222;18.670;2023-04-28T01:10:44;100720.72;;;1.81;100.00
67052;BME280;53957;47.222;18.670;2023-04-28T01:13:51;100723.69;;;1.59;100.00
67052;BME280;53957;47.222;18.670;2023-04-28T01:16:55;100718.41;;;1.59;100.00
67052;BME280;53957;47.222;18.670;2023-04-28T01:19:59;100711.22;;;1.41;100.00
67052;BME280;53957;47.222;18.670;2023-04-28T01:23:02;100706.44;;;1.25;100.00
67052;BME280;53957;47.222;18.670;2023-04-28T01:26:05;100716.13;;;1.31;100.00
67052;BME280;53957;47.222;18.670;2023-04-28T01:29:11;100709.88;;;1.25;100.00
67052;BME280;53957;47.222;18.670;2023-04-28T01:32:14;100708.03;;;1.33;100.00
67052;BME280;53957;47.222;18.670;2023-04-28T01:35:17;100710.88;;;1.24;100.00
67052;BME280;53957;47.222;18.670;2023-04-28T01:38:22;100720.81;;;1.22;100.00
67052;BME280;53957;47.222;18.670;2023-04-28T01:41:25;100713.09;;;1.21;100.00
67052;BME280;53957;47.222;18.670;2023-04-28T01:44:27;100716.56;;;1.15;100.00
67052;BME280;53957;47.222;18.670;2023-04-28T01:47:31;100719.00;;;1.09;100.00
67052;BME280;53957;47.222;18.670;2023-04-28T01:50:33;100710.97;;;0.91;100.00
67052;BME280;53957;47.222;18.670;2023-04-28T01:53:39;100712.44;;;0.67;100.00
67052;BME280;53957;47.222;18.670;2023-04-28T01:56:42;100710.72;;;1.06;100.00
67052;BME280;53957;47.222;18.670;2023-04-28T01:59:45;100712.56;;;0.99;100.00
67052;BME280;53957;47.222;18.670;2023-04-28T02:02:49;100719.88;;;0.76;100.00
67052;BME280;53957;47.222;18.670;2023-04-28T02:05:53;100727.81;;;0.56;100.00
67052;BME280;53957;47.222;18.670;2023-04-28T02:08:56;100726.78;;;0.71;100.00
67052;BME280;53957;47.222;18.670;2023-04-28T02:11:59;100719.06;;;0.83;100.00
67052;BME280;53957;47.222;18.670;2023-04-28T02:15:04;100712.22;;;0.75;100.00
67052;BME280;53957;47.222;18.670;2023-04-28T02:18:08;100713.03;;;0.69;100.00
67052;BME280;53957;47.222;18.670;2023-04-28T02:21:14;100712.66;;;0.72;100.00
67052;BME280;53957;47.222;18.670;2023-04-28T02:24:19;100719.06;;;0.89;100.00
67052;BME280;53957;47.222;18.670;2023-04-28T02:27:22;100719.13;;;0.69;100.00
67052;BME280;53957;47.222;18.670;2023-04-28T02:30:25;100726.38;;;0.60;100.00
67052;BME280;53957;47.222;18.670;2023-04-28T02:33:30;100724.56;;;0.68;100.00
67052;BME280;53957;47.222;18.670;2023-04-28T02:36:33;100727.19;;;0.74;100.00
67052;BME280;53957;47.222;18.670;2023-04-28T02:39:36;100732.78;;;0.91;100.00
67052;BME280;53957;47.222;18.670;2023-04-28T02:42:39;100732.59;;;0.86;100.00
67052;BME280;53957;47.222;18.670;2023-04-28T02:45:42;100731.19;;;0.90;100.00
67052;BME280;53957;47.222;18.670;2023-04-28T02:48:44;100729.59;;;0.89;100.00
67052;BME280;53957;47.222;18.670;2023-04-28T02:51:48;100731.59;;;0.94;100.00
67052;BME280;53957;47.222;18.670;2023-04-28T02:54:50;100740.50;;;0.73;100.00
67052;BME280;53957;47.222;18.670;2023-04-28T02:57:56;100741.53;;;0.45;100.00
67052;BME280;53957;47.222;18.670;2023-04-28T03:00:59;100737.69;;;0.54;100.00
67052;BME280;53957;47.222;18.670;2023-04-28T03:04:03;100738.72;;;0.46;100.00
67052;BME280;53957;47.222;18.670;2023-04-28T03:07:06;100736.06;;;0.80;100.00
67052;BME280;53957;47.222;18.670;2023-04-28T03:10:11;100746.78;;;0.58;100.00
67052;BME280;53957;47.222;18.670;2023-04-28T03:13:14;100739.72;;;0.52;100.00
67052;BME280;53957;47.222;18.670;2023-04-28T03:16:17;100739.13;;;0.50;100.00
67052;BME280;53957;47.222;18.670;2023-04-28T03:19:21;100743.31;;;0.11;100.00
67052;BME280;53957;47.222;18.670;2023-04-28T03:22:23;100744.78;;;0.34;100.00
67052;BME280;53957;47.222;18.670;2023-04-28T03:25:26;100738.91;;;0.38;100.00
67052;BME280;53957;47.222;18.670;2023-04-28T03:28:30;100735.69;;;0.43;100.00
67052;BME280;53957;47.222;18.670;2023-04-28T03:31:33;100739.31;;;0.69;100.00
67052;BME280;53957;47.222;18.670;2023-04-28T03:34:36;100740.53;;;0.46;100.00
67052;BME280;53957;47.222;18.670;2023-04-28T03:37:39;100749.81;;;0.42;100.00
67052;BME280;53957;47.222;18.670;2023-04-28T03:40:42;100749.41;;;0.58;100.00
67052;BME280;53957;47.222;18.670;2023-04-28T03:43:47;100754.44;;;0.73;100.00
67052;BME280;53957;47.222;18.670;2023-04-28T03:46:54;100745.56;;;0.61;100.00
67052;BME280;53957;47.222;18.670;2023-04-28T03:49:57;100752.63;;;0.80;100.00
67052;BME280;53957;47.222;18.670;2023-04-28T03:53:01;100755.34;;;1.26;100.00
67052;BME280;53957;47.222;18.670;2023-04-28T03:56:04;100751.72;;;1.20;100.00
67052;BME280;53957;47.222;18.670;2023-04-28T03:59:08;100751.09;;;1.32;100.00
67052;BME280;53957;47.222;18.670;2023-04-28T04:02:13;100757.28;;;1.51;100.00
67052;BME280;53957;47.222;18.670;2023-04-28T04:05:16;100753.59;;;1.06;100.00
67052;BME280;53957;47.222;18.670;2023-04-28T04:08:19;100760.50;;;1.59;100.00
67052;BME280;53957;47.222;18.670;2023-04-28T04:11:22;100764.22;;;2.16;100.00
67052;BME280;53957;47.222;18.670;2023-04-28T04:14:25;100770.84;;;2.50;100.00
67052;BME280;53957;47.222;18.670;2023-04-28T04:17:28;100761.19;;;2.69;100.00
67052;BME280;53957;47.222;18.670;2023-04-28T04:20:31;100763.47;;;2.59;100.00
67052;BME280;53957;47.222;18.670;2023-04-28T04:23:34;100763.63;;;3.27;100.00
67052;BME280;53957;47.222;18.670;2023-04-28T04:26:37;100764.22;;;3.47;100.00
67052;BME280;53957;47.222;18.670;2023-04-28T04:29:41;100764.69;;;4.05;100.00
67052;BME280;53957;47.222;18.670;2023-04-28T04:32:45;100770.03;;;4.41;100.00
67052;BME280;53957;47.222;18.670;2023-04-28T04:35:52;100758.63;;;4.16;100.00
67052;BME280;53957;47.222;18.670;2023-04-28T04:38:55;100752.66;;;4.09;100.00
67052;BME280;53957;47.222;18.670;2023-04-28T04:41:58;100753.69;;;3.47;100.00
67052;BME280;53957;47.222;18.670;2023-04-28T04:45:06;100754.25;;;3.49;100.00
67052;BME280;53957;47.222;18.670;2023-04-28T04:48:10;100758.84;;;3.54;100.00
67052;BME280;53957;47.222;18.670;2023-04-28T04:51:12;100760.56;;;3.48;100.00
67052;BME280;53957;47.222;18.670;2023-04-28T04:54:16;100756.31;;;3.47;100.00
67052;BME280;53957;47.222;18.670;2023-04-28T04:57:19;100769.06;;;3.32;100.00
67052;BME280;53957;47.222;18.670;2023-04-28T05:00:26;100760.34;;;3.50;100.00
67052;BME280;53957;47.222;18.670;2023-04-28T05:03:29;100758.84;;;3.54;100.00
67052;BME280;53957;47.222;18.670;2023-04-28T05:06:33;100752.69;;;3.60;100.00
67052;BME280;53957;47.222;18.670;2023-04-28T05:09:36;100761.56;;;3.66;100.00
67052;BME280;53957;47.222;18.670;2023-04-28T05:12:39;100761.09;;;3.69;100.00
67052;BME280;53957;47.222;18.670;2023-04-28T05:15:41;100756.47;;;3.83;100.00
67052;BME280;53957;47.222;18.670;2023-04-28T05:18:48;100760.62;;;3.91;100.00
67052;BME280;53957;47.222;18.670;2023-04-28T05:21:50;100771.00;;;4.16;100.00
67052;BME280;53957;47.222;18.670;2023-04-28T05:24:58;100767.84;;;4.38;100.00
67052;BME280;53957;47.222;18.670;2023-04-28T05:28:01;100768.66;;;4.97;100.00
67052;BME280;53957;47.222;18.670;2023-04-28T05:31:09;100774.94;;;5.44;100.00
67052;BME280;53957;47.222;18.670;2023-04-28T05:34:12;100775.03;;;5.49;100.00
67052;BME280;53957;47.222;18.670;2023-04-28T05:37:15;100781.16;;;5.78;100.00
67052;BME280;53957;47.222;18.670;2023-04-28T05:40:19;100775.16;;;6.12;100.00
67052;BME280;53957;47.222;18.670;2023-04-28T05:43:22;100776.75;;;6.13;100.00
67052;BME280;53957;47.222;18.670;2023-04-28T05:46:24;100787.91;;;7.00;96.71
67052;BME280;53957;47.222;18.670;2023-04-28T05:49:32;100792.44;;;6.66;100.00
67052;BME280;53957;47.222;18.670;2023-04-28T05:52:38;100788.34;;;6.58;100.00
67052;BME280;53957;47.222;18.670;2023-04-28T05:55:42;100789.34;;;6.91;98.25
67052;BME280;53957;47.222;18.670;2023-04-28T05:58:45;100790.09;;;6.86;99.19
67052;BME280;53957;47.222;18.670;2023-04-28T06:01:49;100783.59;;;6.77;100.00
67052;BME280;53957;47.222;18.670;2023-04-28T06:04:52;100786.59;;;7.42;100.00
67052;BME280;53957;47.222;18.670;2023-04-28T06:07:55;100788.53;;;7.52;100.00
67052;BME280;53957;47.222;18.670;2023-04-28T06:10:58;100785.59;;;7.98;96.49
67052;BME280;53957;47.222;18.670;2023-04-28T06:14:01;100791.81;;;7.59;100.00
67052;BME280;53957;47.222;18.670;2023-04-28T06:17:04;100789.84;;;8.26;92.44
67052;BME280;53957;47.222;18.670;2023-04-28T06:20:08;100790.97;;;8.35;92.33
67052;BME280;53957;47.222;18.670;2023-04-28T06:23:13;100792.87;;;8.08;94.97
67052;BME280;53957;47.222;18.670;2023-04-28T06:26:16;100793.53;;;8.25;91.66
67052;BME280;53957;47.222;18.670;2023-04-28T06:29:20;100787.56;;;8.40;89.49
67052;BME280;53957;47.222;18.670;2023-04-28T06:32:26;100793.09;;;8.66;91.51
67052;BME280;53957;47.222;18.670;2023-04-28T06:35:29;100787.72;;;8.98;89.11
67052;BME280;53957;47.222;18.670;2023-04-28T06:38:31;100796.97;;;8.91;88.42
67052;BME280;53957;47.222;18.670;2023-04-28T06:41:34;100795.25;;;9.17;84.23
67052;BME280;53957;47.222;18.670;2023-04-28T06:44:38;100794.84;;;8.50;88.66
67052;BME280;53957;47.222;18.670;2023-04-28T06:47:41;100791.53;;;9.13;86.76
67052;BME280;53957;47.222;18.670;2023-04-28T06:50:44;100802.66;;;9.68;83.89
67052;BME280;53957;47.222;18.670;2023-04-28T12:00:40;100538.81;;;16.08;36.65
67052;BME280;53957;47.222;18.670;2023-04-28T12:03:44;100539.63;;;15.77;36.85
67052;BME280;53957;47.222;18.670;2023-04-28T12:06:57;100533.81;;;16.33;37.29
67052;BME280;53957;47.222;18.670;2023-04-28T12:10:12;100532.37;;;16.27;38.22
67052;BME280;53957;47.222;18.670;2023-04-28T12:13:17;100529.28;;;16.86;37.20
67052;BME280;53957;47.222;18.670;2023-04-28T12:16:36;100525.97;;;16.63;37.32
67052;BME280;53957;47.222;18.670;2023-04-28T12:19:43;100522.78;;;16.52;37.39
67052;BME280;53957;47.222;18.670;2023-04-28T12:22:48;100524.38;;;17.06;36.10
67052;BME280;53957;47.222;18.670;2023-04-28T12:25:52;100511.19;;;17.22;37.31
67052;BME280;53957;47.222;18.670;2023-04-28T12:28:55;100509.47;;;16.73;37.16
67052;BME280;53957;47.222;18.670;2023-04-28T12:31:57;100498.25;;;16.89;37.42
67052;BME280;53957;47.222;18.670;2023-04-28T12:35:00;100495.22;;;16.82;38.19
67052;BME280;53957;47.222;18.670;2023-04-28T12:38:03;100482.53;;;16.73;37.44
67052;BME280;53957;47.222;18.670;2023-04-28T12:41:06;100469.53;;;16.49;37.60
67052;BME280;53957;47.222;18.670;2023-04-28T12:44:09;100433.28;;;17.38;40.07
67052;BME280;53957;47.222;18.670;2023-04-28T12:47:12;100459.94;;;17.78;38.21
67052;BME280;53957;47.222;18.670;2023-04-28T12:50:15;100455.31;;;17.49;37.00
67052;BME280;53957;47.222;18.670;2023-04-28T12:53:18;100444.63;;;17.22;39.16
67052;BME280;53957;47.222;18.670;2023-04-28T12:56:21;100435.00;;;16.69;38.21
67052;BME280;53957;47.222;18.670;2023-04-28T12:59:25;100437.97;;;17.11;38.59
67052;BME280;53957;47.222;18.670;2023-04-28T13:02:28;100421.72;;;16.55;38.35
67052;BME280;53957;47.222;18.670;2023-04-28T13:05:31;100420.59;;;16.30;39.70
67052;BME280;53957;47.222;18.670;2023-04-28T13:08:34;100413.78;;;16.23;40.93
67052;BME280;53957;47.222;18.670;2023-04-28T13:11:38;100409.03;;;16.64;39.88
67052;BME280;53957;47.222;18.670;2023-04-28T13:14:40;100411.13;;;16.50;39.43
67052;BME280;53957;47.222;18.670;2023-04-28T13:17:44;100401.09;;;16.77;39.46
67052;BME280;53957;47.222;18.670;2023-04-28T13:20:48;100400.91;;;17.08;38.71
67052;BME280;53957;47.222;18.670;2023-04-28T13:23:55;100400.78;;;16.78;38.64
67052;BME280;53957;47.222;18.670;2023-04-28T13:26:58;100400.94;;;16.82;40.08
67052;BME280;53957;47.222;18.670;2023-04-28T13:30:01;100397.31;;;16.69;38.65
67052;BME280;53957;47.222;18.670;2023-04-28T13:33:05;100392.22;;;16.76;39.66
67052;BME280;53957;47.222;18.670;2023-04-28T13:36:08;100380.69;;;16.49;39.52
67052;BME280;53957;47.222;18.670;2023-04-28T13:39:11;100403.66;;;16.64;40.86
67052;BME280;53957;47.222;18.670;2023-04-28T13:42:16;100396.66;;;16.81;40.78
67052;BME280;53957;47.222;18.670;2023-04-28T13:45:19;100391.94;;;16.51;40.78
67052;BME280;53957;47.222;18.670;2023-04-28T13:48:24;100390.84;;;16.52;41.16
67052;BME280;53957;47.222;18.670;2023-04-28T13:51:29;100385.31;;;16.49;40.24
67052;BME280;53957;47.222;18.670;2023-04-28T13:54:34;100381.12;;;16.78;40.58
67052;BME280;53957;47.222;18.670;2023-04-28T13:57:37;100391.84;;;17.13;41.08
67052;BME280;53957;47.222;18.670;2023-04-28T14:00:40;100381.38;;;17.20;40.96
67052;BME280;53957;47.222;18.670;2023-04-28T14:03:44;100373.84;;;17.34;40.42
67052;BME280;53957;47.222;18.670;2023-04-28T14:06:47;100377.91;;;17.11;40.92
67052;BME280;53957;47.222;18.670;2023-04-28T14:09:52;100374.47;;;17.01;40.28
67052;BME280;53957;47.222;18.670;2023-04-28T14:12:55;100362.50;;;16.55;40.83
67052;BME280;53957;47.222;18.670;2023-04-28T14:15:58;100349.78;;;16.64;42.64
67052;BME280;53957;47.222;18.670;2023-04-28T14:19:01;100347.94;;;16.47;42.70
67052;BME280;53957;47.222;18.670;2023-04-28T14:22:04;100336.66;;;16.63;42.39
67052;BME280;53957;47.222;18.670;2023-04-28T14:25:07;100333.50;;;16.52;42.05
67052;BME280;53957;47.222;18.670;2023-04-28T14:28:10;100334.41;;;16.73;42.81
67052;BME280;53957;47.222;18.670;2023-04-28T14:31:13;100335.78;;;16.97;41.63
67052;BME280;53957;47.222;18.670;2023-04-28T14:34:16;100339.28;;;16.89;43.40
67052;BME280;53957;47.222;18.670;2023-04-28T14:37:19;100344.22;;;16.78;43.57
67052;BME280;53957;47.222;18.670;2023-04-28T14:40:22;100333.34;;;16.57;43.02
67052;BME280;53957;47.222;18.670;2023-04-28T14:43:25;100335.03;;;16.70;41.81
67052;BME280;53957;47.222;18.670;2023-04-28T14:46:29;100330.34;;;16.50;42.88
67052;BME280;53957;47.222;18.670;2023-04-28T14:49:32;100334.94;;;16.40;43.70
67052;BME280;53957;47.222;18.670;2023-04-28T14:52:35;100325.63;;;16.20;43.58
67052;BME280;53957;47.222;18.670;2023-04-28T14:55:39;100326.13;;;16.22;45.48
67052;BME280;53957;47.222;18.670;2023-04-28T14:58:42;100322.94;;;16.20;45.94
67052;BME280;53957;47.222;18.670;2023-04-28T15:01:45;100326.91;;;16.05;44.64
67052;BME280;53957;47.222;18.670;2023-04-28T15:04:48;100325.31;;;16.04;44.34
67052;BME280;53957;47.222;18.670;2023-04-28T15:07:52;100318.19;;;16.00;44.14
67052;BME280;53957;47.222;18.670;2023-04-28T15:10:55;100315.22;;;16.10;44.42
67052;BME280;53957;47.222;18.670;2023-04-28T15:13:57;100312.97;;;15.94;44.08
67052;BME280;53957;47.222;18.670;2023-04-28T15:17:00;100310.59;;;15.93;44.50
67052;BME280;53957;47.222;18.670;2023-04-28T15:20:04;100304.75;;;15.91;45.12
67052;BME280;53957;47.222;18.670;2023-04-28T15:23:07;100303.44;;;15.80;45.52
67052;BME280;53957;47.222;18.670;2023-04-28T15:26:10;100290.69;;;15.85;46.15
67052;BME280;53957;47.222;18.670;2023-04-28T15:29:14;100294.47;;;15.84;45.82
67052;BME280;53957;47.222;18.670;2023-04-28T15:32:17;100301.53;;;15.71;46.89
67052;BME280;53957;47.222;18.670;2023-04-28T15:35:20;100298.06;;;15.62;46.98
67052;BME280;53957;47.222;18.670;2023-04-28T15:38:23;100299.50;;;15.68;47.56
67052;BME280;53957;47.222;18.670;2023-04-28T15:41:26;100297.25;;;15.70;47.31
67052;BME280;53957;47.222;18.670;2023-04-28T15:44:30;100301.03;;;15.60;47.11
67052;BME280;53957;47.222;18.670;2023-04-28T15:47:34;100292.53;;;15.58;47.92
67052;BME280;53957;47.222;18.670;2023-04-28T15:50:37;100295.53;;;15.57;48.82
67052;BME280;53957;47.222;18.670;2023-04-28T15:53:40;100282.69;;;15.54;49.30
67052;BME280;53957;47.222;18.670;2023-04-28T15:56:43;100283.31;;;15.51;49.04
67052;BME280;53957;47.222;18.670;2023-04-28T15:59:46;100275.75;;;15.53;49.36
67052;BME280;53957;47.222;18.670;2023-04-28T16:02:49;100267.50;;;15.40;50.18
67052;BME280;53957;47.222;18.670;2023-04-28T16:05:53;100269.56;;;15.43;49.12
67052;BME280;53957;47.222;18.670;2023-04-28T16:08:59;100269.41;;;15.40;49.34
67052;BME280;53957;47.222;18.670;2023-04-28T16:12:02;100274.47;;;15.41;49.80
67052;BME280;53957;47.222;18.670;2023-04-28T16:15:06;100265.31;;;15.42;50.17
67052;BME280;53957;47.222;18.670;2023-04-28T16:18:11;100259.12;;;15.42;50.43
67052;BME280;53957;47.222;18.670;2023-04-28T16:21:14;100253.28;;;15.31;51.11
67052;BME280;53957;47.222;18.670;2023-04-28T16:24:19;100256.56;;;15.28;51.34
67052;BME280;53957;47.222;18.670;2023-04-28T16:27:24;100248.19;;;15.29;51.88
67052;BME280;53957;47.222;18.670;2023-04-28T16:30:30;100235.72;;;15.34;52.39
67052;BME280;53957;47.222;18.670;2023-04-28T16:33:34;100235.56;;;15.30;53.06
67052;BME280;53957;47.222;18.670;2023-04-28T16:36:38;100228.41;;;15.17;53.34
67052;BME280;53957;47.222;18.670;2023-04-28T16:39:41;100226.34;;;15.13;53.46
67052;BME280;53957;47.222;18.670;2023-04-28T16:42:44;100223.06;;;15.17;53.06
67052;BME280;53957;47.222;18.670;2023-04-28T16:45:48;100215.00;;;15.17;53.66
67052;BME280;53957;47.222;18.670;2023-04-28T16:48:51;100212.16;;;15.22;54.01
67052;BME280;53957;47.222;18.670;2023-04-28T16:51:57;100207.34;;;15.01;54.47
67052;BME280;53957;47.222;18.670;2023-04-28T16:55:02;100207.66;;;14.91;55.06
67052;BME280;53957;47.222;18.670;2023-04-28T16:58:08;100206.41;;;14.97;55.03
67052;BME280;53957;47.222;18.670;2023-04-28T17:01:11;100209.50;;;14.81;55.96
67052;BME280;53957;47.222;18.670;2023-04-28T17:04:13;100202.38;;;14.68;56.25
67052;BME280;53957;47.222;18.670;2023-04-28T17:07:17;100195.88;;;14.69;55.87
67052;BME280;53957;47.222;18.670;2023-04-28T17:10:20;100190.06;;;14.67;56.41
67052;BME280;53957;47.222;18.670;2023-04-28T17:13:24;100183.81;;;14.58;56.56
67052;BME280;53957;47.222;18.670;2023-04-28T17:16:30;100177.31;;;14.50;57.52
67052;BME280;53957;47.222;18.670;2023-04-28T17:19:34;100176.19;;;14.42;58.09
67052;BME280;53957;47.222;18.670;2023-04-28T17:22:37;100171.00;;;14.46;58.44
67052;BME280;53957;47.222;18.670;2023-04-28T17:25:40;100149.16;;;14.30;59.10
67052;BME280;53957;47.222;18.670;2023-04-28T17:28:42;100141.72;;;14.27;58.95
67052;BME280;53957;47.222;18.670;2023-04-28T17:31:46;100129.38;;;14.17;59.25
67052;BME280;53957;47.222;18.670;2023-04-28T17:34:49;100118.47;;;14.13;59.49
67052;BME280;53957;47.222;18.670;2023-04-28T17:37:52;100123.00;;;14.04;59.88
67052;BME280;53957;47.222;18.670;2023-04-28T17:40:55;100130.06;;;14.00;60.48
67052;BME280;53957;47.222;18.670;2023-04-28T17:43:58;100142.56;;;14.05;60.69
67052;BME280;53957;47.222;18.670;2023-04-28T17:47:01;100163.81;;;14.01;60.55
67052;BME280;53957;47.222;18.670;2023-04-28T17:50:04;100175.81;;;14.04;60.25
67052;BME280;53957;47.222;18.670;2023-04-28T17:53:08;100181.28;;;13.90;61.49
67052;BME280;53957;47.222;18.670;2023-04-28T17:56:11;100180.38;;;13.94;61.46
67052;BME280;53957;47.222;18.670;2023-04-28T17:59:14;100181.09;;;13.86;62.12
67052;BME280;53957;47.222;18.670;2023-04-28T18:02:19;100184.31;;;13.97;61.95
67052;BME280;53957;47.222;18.670;2023-04-28T18:05:22;100193.78;;;13.94;62.55
67052;BME280;53957;47.222;18.670;2023-04-28T18:08:37;100208.00;;;14.04;62.26
67052;BME280;53957;47.222;18.670;2023-04-28T18:11:40;100218.44;;;14.05;62.44
67052;BME280;53957;47.222;18.670;2023-04-28T18:14:44;100210.97;;;13.57;66.15
67052;BME280;53957;47.222;18.670;2023-04-28T18:17:47;100194.16;;;13.42;67.59
67052;BME280;53957;47.222;18.670;2023-04-28T18:20:56;100198.12;;;13.31;69.86
67052;BME280;53957;47.222;18.670;2023-04-28T18:23:59;100195.56;;;13.40;70.90
67052;BME280;53957;47.222;18.670;2023-04-28T18:27:02;100197.75;;;13.24;75.02
67052;BME280;53957;47.222;18.670;2023-04-28T18:30:06;100198.53;;;13.24;74.08
67052;BME280;53957;47.222;18.670;2023-04-28T18:33:09;100197.38;;;13.02;75.33
67052;BME280;53957;47.222;18.670;2023-04-28T18:36:12;100193.31;;;13.05;75.85
67052;BME280;53957;47.222;18.670;2023-04-28T18:39:15;100193.41;;;13.00;76.90
67052;BME280;53957;47.222;18.670;2023-04-28T18:42:19;100188.47;;;12.93;75.96
67052;BME280;53957;47.222;18.670;2023-04-28T18:45:28;100189.84;;;12.91;75.28
67052;BME280;53957;47.222;18.670;2023-04-28T18:48:31;100181.53;;;12.92;74.33
67052;BME280;53957;47.222;18.670;2023-04-28T18:51:38;100184.91;;;12.98;73.72
67052;BME280;53957;47.222;18.670;2023-04-28T18:54:41;100183.31;;;12.97;74.23
67052;BME280;53957;47.222;18.670;2023-04-28T18:57:44;100178.94;;;13.01;73.71
67052;BME280;53957;47.222;18.670;2023-04-28T19:00:51;100178.66;;;12.88;74.52
67052;BME280;53957;47.222;18.670;2023-04-28T19:03:54;100185.28;;;12.91;74.74
67052;BME280;53957;47.222;18.670;2023-04-28T19:06:58;100188.69;;;12.83;75.72
67052;BME280;53957;47.222;18.670;2023-04-28T19:10:00;100189.47;;;12.69;75.58
67052;BME280;53957;47.222;18.670;2023-04-28T19:13:03;100196.69;;;12.69;75.68
67052;BME280;53957;47.222;18.670;2023-04-28T19:16:06;100194.41;;;12.62;76.39
67052;BME280;53957;47.222;18.670;2023-04-28T19:19:09;100200.75;;;12.66;76.16
67052;BME280;53957;47.222;18.670;2023-04-28T19:22:33;100205.12;;;12.76;75.74
67052;BME280;53957;47.222;18.670;2023-04-28T19:25:37;100208.09;;;12.61;76.43
67052;BME280;53957;47.222;18.670;2023-04-28T19:28:39;100204.31;;;12.62;75.67
67052;BME280;53957;47.222;18.670;2023-04-28T19:31:43;100208.47;;;12.68;74.90
67052;BME280;53957;47.222;18.670;2023-04-28T19:34:46;100212.84;;;12.64;74.10
67052;BME280;53957;47.222;18.670;2023-04-28T19:37:49;100211.88;;;12.60;74.33
67052;BME280;53957;47.222;18.670;2023-04-28T19:40:59;100204.72;;;12.55;74.28
67052;BME280;53957;47.222;18.670;2023-04-28T19:44:05;100202.13;;;12.50;74.48
67052;BME280;53957;47.222;18.670;2023-04-28T19:47:07;100203.13;;;12.54;73.76
67052;BME280;53957;47.222;18.670;2023-04-28T19:50:13;100199.75;;;12.48;74.48
67052;BME280;53957;47.222;18.670;2023-04-28T19:53:17;100194.41;;;12.48;73.24
67052;BME280;53957;47.222;18.670;2023-04-28T19:56:20;100189.34;;;12.47;73.72
67052;BME280;53957;47.222;18.670;2023-04-28T19:59:23;100178.53;;;12.52;73.26
67052;BME280;53957;47.222;18.670;2023-04-28T20:02:26;100175.47;;;12.45;72.87
67052;BME280;53957;47.222;18.670;2023-04-28T20:05:30;100169.03;;;12.46;72.24
67052;BME280;53957;47.222;18.670;2023-04-28T20:08:33;100158.94;;;12.43;72.20
67052;BME280;53957;47.222;18.670;2023-04-28T20:11:36;100152.37;;;12.49;72.65
67052;BME280;53957;47.222;18.670;2023-04-28T20:14:38;100163.97;;;12.30;73.42
67052;BME280;53957;47.222;18.670;2023-04-28T20:17:41;100150.09;;;12.28;73.99
67052;BME280;53957;47.222;18.670;2023-04-28T20:20:44;100150.69;;;12.25;74.18
67052;BME280;53957;47.222;18.670;2023-04-28T20:23:47;100148.22;;;12.29;74.33
67052;BME280;53957;47.222;18.670;2023-04-28T20:26:50;100139.50;;;12.23;74.70
67052;BME280;53957;47.222;18.670;2023-04-28T20:29:55;100140.47;;;12.27;75.01
